Bay City, Texas
Current Conditions -  °F | °C
As of 8:15 PM on Monday 22 Dec 2014 (Local Time) from KARM Reporting Station
Haze Haze  
Wind Chill: 57°   Ceiling: Unl
Heat Index: 57°   Visibility: 5mi
Dew Point: 56°   Wind: 3mph
Humidity: 97%   Direction: 160°SSE
Pressure: 29.66"   Gusts: NA
Location:  28.98°N, 95.97°W
Report Text: KARM 230215Z AUTO 16003KT 5SM BR CLR 14/14 A2966 RMK AO2 T01400135
Loading
Personal Weather Stations






























Interactive Weather Map New forecast layout! Learn more

10-Day Weather Forecast

Advertisements
Track Severe Weather on mobile